Latest Weather Observations for Warrnambool

IDV60801

Issued at 4:32 am EST Wednesday 28 September 2016 (issued every 30 minutes, with the page automatically refreshed every 10 minutes)

About weather observations | Map of weather stations | Latest weather observations for VIC | Other Formats
Station Details ID: 090186 Name: WARRNAMBOOL AIRPORT NDB Lat: -38.29 Lon: 142.45 Height: 70.8 m
Data from the previous 72 hours. | See also: Recent months at Warrnambool
Date/Time
EST
Temp
°C
App
Temp
°C
Dew
Point
°C
Rel
Hum
%
Delta-T
°C
Wind Press
QNH
hPa
Press
MSL
hPa
Rain since
9am
mm
Dir  Spd
km/h
Gust
km/h
Spd
kts
Gust
kts
28/04:30am 9.0 6.0 7.5 90 0.7 N 13 17 7 9 1010.9 1011.0 0.0
28/04:00am 9.4 6.4 7.5 88 0.9 NNW 13 17 7 9 1010.9 1011.0 0.0
28/03:30am 9.1 5.7 7.5 90 0.8 N 15 20 8 11 1011.0 1011.1 0.0
28/03:00am 9.1 5.3 7.4 89 0.8 NNW 17 20 9 11 1011.1 1011.2 0.0
28/02:30am 8.6 5.5 7.4 92 0.6 NNW 13 15 7 8 1011.2 1011.3 0.0
28/02:00am 9.3 5.9 7.7 90 0.8 NNW 15 17 8 9 1011.4 1011.5 0.0
28/01:30am 9.4 5.7 7.8 90 0.8 NNW 17 22 9 12 1011.6 1011.7 0.0
28/01:00am 8.4 4.9 7.3 93 0.5 N 15 17 8 9 1011.7 1011.8 0.0
28/12:30am 8.6 4.7 7.1 90 0.7 N 17 20 9 11 1011.7 1011.8 0.0
28/12:00am 9.5 5.7 7.6 88 0.9 NNW 17 22 9 12 1011.8 1011.9 0.0
 
Date/Time
EST
Temp
°C
App
Temp
°C
Dew
Point
°C
Rel
Hum
%
Delta-T
°C
Wind Press
QNH
hPa
Press
MSL
hPa
Rain since
9am
mm
Dir  Spd
km/h
Gust
km/h
Spd
kts
Gust
kts
27/11:30pm 9.4 5.2 7.5 88 0.9 N 19 24 10 13 1011.9 1012.0 0.0
27/11:00pm 9.0 4.9 7.8 92 0.6 N 19 24 10 13 1012.0 1012.1 0.0
27/10:30pm 8.8 5.0 7.6 92 0.6 N 17 20 9 11 1012.0 1012.1 0.0
27/10:00pm 9.1 5.8 8.0 93 0.5 N 15 17 8 9 1012.0 1012.1 0.0
27/09:30pm 10.6 7.0 8.5 87 1.0 NNW 17 20 9 11 1012.0 1012.1 0.0
27/09:00pm 9.1 6.1 7.5 90 0.8 N 13 17 7 9 1012.1 1012.2 0.0
27/08:30pm 9.2 6.2 7.5 89 0.8 N 13 15 7 8 1012.2 1012.3 0.0
27/08:00pm 10.8 8.3 8.2 84 1.3 N 11 15 6 8 1012.1 1012.2 0.0
27/07:30pm 9.9 6.9 7.7 86 1.1 NNW 13 15 7 8 1012.2 1012.3 0.0
27/07:00pm 10.8 7.8 7.9 82 1.4 NW 13 17 7 9 1012.1 1012.2 0.0
27/06:30pm 10.5 7.8 7.4 81 1.5 NNW 11 13 6 7 1012.0 1012.1 0.0
27/06:00pm 12.7 10.2 8.2 74 2.2 NNW 11 15 6 8 1011.7 1011.8 0.0
27/05:30pm 13.4 11.1 8.9 74 2.3 NW 11 17 6 9 1011.8 1011.9 0.0
27/05:00pm 13.8 10.5 8.0 68 2.9 NW 15 22 8 12 1011.7 1011.8 0.0
27/04:30pm 14.0 11.9 8.4 69 2.8 WNW 9 11 5 6 1011.7 1011.8 0.0
27/04:00pm 13.6 10.6 7.8 68 2.9 W 13 17 7 9 1011.7 1011.8 0.0
27/03:30pm 14.1 10.6 7.4 64 3.3 W 15 20 8 11 1011.5 1011.6 0.0
27/03:00pm 14.4 10.1 7.0 61 3.6 W 19 22 10 12 1011.5 1011.6 0.0
27/02:30pm 14.4 10.0 7.2 62 3.5 W 20 28 11 15 1011.5 1011.6 0.0
27/02:00pm 15.5 11.4 8.0 61 3.8 W 19 26 10 14 1011.7 1011.8 0.0
27/01:30pm 15.0 11.0 8.3 64 3.4 W 19 26 10 14 1011.9 1012.0 0.0
27/01:00pm 14.5 10.1 7.3 62 3.6 W 20 30 11 16 1012.2 1012.3 0.0
27/12:30pm 13.8 7.7 6.7 62 3.4 W 28 39 15 21 1012.5 1012.6 0.0
27/12:00pm 14.1 8.2 7.4 64 3.3 W 28 37 15 20 1012.5 1012.6 0.0
27/11:30am 13.4 6.9 6.5 63 3.3 W 30 41 16 22 1012.5 1012.6 0.0
27/11:00am 13.4 7.3 8.3 71 2.5 W 30 35 16 19 1012.5 1012.6 0.0
27/10:30am 12.3 6.8 7.6 73 2.3 W 26 37 14 20 1012.6 1012.7 0.0
27/10:00am 12.6 6.3 7.5 71 2.5 WSW 30 43 16 23 1012.4 1012.5 0.0
27/09:30am 11.5 5.5 7.0 74 2.2 WSW 28 39 15 21 1012.3 1012.4 0.0
27/09:00am 11.9 7.9 8.4 79 1.7 W 19 30 10 16 1012.0 1012.1 7.2
27/08:30am 10.0 6.0 8.4 90 0.8 WNW 19 26 10 14 1011.6 1011.7 7.2
27/08:00am 10.0 6.2 8.9 93 0.5 W 19 28 10 15 1011.1 1011.2 7.2
27/07:30am 9.6 4.0 8.7 94 0.4 W 28 41 15 22 1010.7 1010.8 7.2
27/07:15am 9.6 3.6 8.7 94 0.4 W 30 46 16 25 1010.6 1010.7 7.2
27/07:14am 9.6 3.6 8.7 94 0.4 W 30 46 16 25 1010.6 1010.7 7.2
27/07:00am 9.3 2.9 8.4 94 0.4 WSW 32 43 17 23 1010.4 1010.5 7.2
27/06:35am 9.2 2.5 8.3 94 0.4 W 33 48 18 26 1010.2 1010.3 6.6
27/06:30am 9.2 3.1 8.3 94 0.4 W 30 44 16 24 1010.1 1010.2 6.2
27/06:25am 9.3 3.6 8.4 94 0.4 W 28 43 15 23 1009.9 1010.0 5.8
27/06:09am 9.0 4.4 8.1 94 0.4 WNW 22 39 12 21 1009.6 1009.7 5.8
27/06:00am 8.5 4.3 7.6 94 0.4 WNW 19 26 10 14 1009.5 1009.6 5.4
27/05:59am 8.5 4.3 7.6 94 0.4 WNW 19 26 10 14 1009.5 1009.6 5.4
27/05:32am 8.1 3.3 7.2 94 0.4 NW 22 28 12 15 1009.2 1009.3 5.2
27/05:30am 8.0 3.1 7.1 94 0.4 NW 22 28 12 15 1009.2 1009.3 5.2
27/05:00am 7.3 2.9 6.4 94 0.4 NW 19 26 10 14 1009.0 1009.1 5.2
27/04:30am 7.3 2.3 6.4 94 0.4 NW 22 28 12 15 1009.0 1009.1 5.2
27/04:00am 6.8 1.7 5.9 94 0.4 NW 22 30 12 16 1008.9 1009.0 5.2
27/03:52am 6.4 1.6 5.5 94 0.4 NNW 20 30 11 16 1008.8 1008.9 5.2
27/03:30am 5.7 1.3 4.8 94 0.4 NNW 17 24 9 13 1008.7 1008.8 5.2
27/03:00am 5.5 1.1 4.6 94 0.4 NNW 17 20 9 11 1008.7 1008.8 5.2
27/02:30am 5.5 0.7 4.6 94 0.4 NNW 19 22 10 12 1008.9 1009.0 5.2
27/02:00am 5.3 0.5 4.4 94 0.4 NNW 19 24 10 13 1008.9 1009.0 5.2
27/01:30am 5.3 1.2 4.4 94 0.4 NNW 15 20 8 11 1009.2 1009.3 5.2
27/01:00am 5.4 1.3 4.5 94 0.4 NNW 15 20 8 11 1009.3 1009.4 5.2
27/12:30am 5.8 1.4 4.6 92 0.5 NNW 17 20 9 11 1009.4 1009.5 5.2
27/12:00am 5.5 1.1 4.5 93 0.4 NNW 17 22 9 12 1009.6 1009.7 5.2
 
Date/Time
EST
Temp
°C
App
Temp
°C
Dew
Point
°C
Rel
Hum
%
Delta-T
°C
Wind Press
QNH
hPa
Press
MSL
hPa
Rain since
9am
mm
Dir  Spd
km/h
Gust
km/h
Spd
kts
Gust
kts
26/11:30pm 5.8 1.0 4.6 92 0.5 NNW 19 22 10 12 1009.7 1009.8 5.2
26/11:00pm 6.6 1.7 5.2 91 0.6 NNW 20 24 11 13 1009.7 1009.8 5.2
26/10:30pm 6.2 1.9 5.2 93 0.4 NNW 17 20 9 11 1009.8 1009.9 5.2
26/10:00pm 6.2 1.5 5.2 93 0.4 NNW 19 22 10 12 1009.7 1009.8 5.2
26/09:30pm 6.7 2.1 5.5 92 0.5 NNW 19 24 10 13 1009.8 1009.9 5.2
26/09:00pm 6.2 2.6 5.2 93 0.4 NNW 13 15 7 8 1009.6 1009.7 5.2
26/08:30pm 7.5 4.2 6.4 93 0.5 NNW 13 17 7 9 1009.4 1009.5 5.2
26/08:00pm 7.9 4.6 6.2 89 0.8 NNW 13 17 7 9 1009.1 1009.2 5.2
26/07:30pm 8.1 4.0 6.2 88 0.9 N 17 24 9 13 1008.8 1008.9 5.2
26/07:00pm 7.2 3.1 6.0 92 0.5 NNW 17 20 9 11 1008.7 1008.8 5.2
26/06:30pm 7.9 3.8 6.2 89 0.8 NNW 17 24 9 13 1008.6 1008.7 5.2
26/06:00pm 9.1 4.5 6.5 84 1.2 NNW 20 30 11 16 1008.3 1008.4 5.2
26/05:30pm 8.2 3.7 6.3 88 0.9 NNW 19 26 10 14 1008.4 1008.5 5.2
26/05:00pm 7.6 3.2 6.4 92 0.6 NNW 19 30 10 16 1007.9 1007.9 5.2
26/04:30pm 7.3 0.4 6.4 94 0.4 WNW 32 41 17 22 1008.8 1008.9 4.4
26/04:25pm 7.3 -0.2 6.4 94 0.4 WNW 35 48 19 26 1008.8 1008.9 4.4
26/04:10pm 6.9 -2.2 5.8 93 0.5 WNW 43 65 23 35 1008.8 1008.9 3.4
26/04:01pm 9.4 3.6 7.8 90 0.8 WNW 28 50 15 27 1008.5 1008.6 2.4
26/04:00pm 9.7 4.3 7.8 88 0.9 WNW 26 46 14 25 1008.5 1008.6 2.2
26/03:50pm 10.0 6.4 8.4 90 0.8 WNW 17 24 9 13 1007.9 1007.9 2.0
26/03:36pm 10.2 6.1 8.8 91 0.7 WNW 20 30 11 16 1007.9 1007.9 1.4
26/03:30pm 10.7 5.7 8.1 84 1.3 W 24 35 13 19 1007.7 1007.7 0.6
26/03:00pm 13.6 8.4 7.2 65 3.1 NNW 24 32 13 17 1007.3 1007.3 0.2
26/02:30pm 14.4 8.9 7.7 64 3.3 NNW 26 39 14 21 1007.5 1007.5 0.2
26/02:00pm 15.4 8.4 6.9 57 4.2 NNW 33 44 18 24 1007.7 1007.7 0.2
26/01:30pm 15.1 10.1 7.9 62 3.6 N 24 37 13 20 1008.2 1008.3 0.2
26/01:00pm 15.1 9.3 7.9 62 3.6 NNW 28 35 15 19 1008.7 1008.8 0.2
26/12:30pm 14.9 8.9 7.2 60 3.8 NNW 28 41 15 22 1009.2 1009.3 0.2
26/12:00pm 15.0 9.8 8.9 67 3.1 NNW 26 39 14 21 1009.7 1009.8 0.0
26/11:30am 14.9 9.3 8.8 67 3.1 NNW 28 37 15 20 1010.1 1010.2 0.0
26/11:00am 14.1 8.0 8.1 67 3.0 NNW 30 39 16 21 1010.6 1010.7 0.0
26/10:30am 14.5 9.2 9.9 74 2.4 NNW 28 37 15 20 1011.0 1011.1 0.0
26/10:00am 12.8 7.4 8.1 73 2.3 NNW 26 33 14 18 1011.3 1011.4 0.0
26/09:30am 13.0 8.4 9.8 81 1.6 N 24 30 13 16 1011.3 1011.4 0.0
26/09:00am 12.1 8.0 8.8 80 1.7 N 20 30 11 16 1011.4 1011.5 0.2
26/08:30am 10.5 6.5 8.3 86 1.1 N 19 24 10 13 1011.5 1011.6 0.2
26/08:00am 9.3 5.3 8.4 94 0.4 N 19 26 10 14 1011.7 1011.8 0.2
26/07:30am 8.0 4.1 7.1 94 0.4 N 17 20 9 11 1011.7 1011.8 0.2
26/07:00am 7.1 3.0 6.2 94 0.4 N 17 19 9 10 1011.9 1012.0 0.2
26/06:30am 4.9 0.7 4.0 94 0.4 N 15 17 8 9 1012.0 1012.1 0.2
26/06:00am 5.1 0.6 4.2 94 0.4 N 17 19 9 10 1012.0 1012.1 0.2
26/05:30am 5.3 1.2 4.4 94 0.4 N 15 19 8 10 1011.8 1011.9 0.2
26/05:00am 5.1 1.0 4.2 94 0.4 N 15 17 8 9 1011.8 1011.9 0.2
26/04:30am 5.5 1.8 4.6 94 0.4 N 13 17 7 9 1011.8 1011.9 0.2
26/04:00am 5.6 1.6 4.7 94 0.4 N 15 17 8 9 1011.8 1011.9 0.2
26/03:30am 6.0 2.0 5.1 94 0.4 N 15 17 8 9 1011.9 1012.0 0.2
26/03:00am 6.2 2.3 5.3 94 0.4 N 15 17 8 9 1012.2 1012.3 0.2
26/02:30am 6.1 2.2 5.2 94 0.4 N 15 17 8 9 1012.5 1012.6 0.2
26/02:00am 6.2 2.7 5.3 94 0.4 N 13 17 7 9 1012.7 1012.8 0.2
26/01:30am 7.0 3.3 6.1 94 0.4 N 15 17 8 9 1013.1 1013.1 0.2
26/01:00am 6.9 3.9 6.0 94 0.4 N 11 13 6 7 1013.4 1013.4 0.2
26/12:30am 6.6 3.2 5.7 94 0.4 N 13 15 7 8 1013.6 1013.6 0.2
26/12:00am 6.8 3.4 5.9 94 0.4 N 13 15 7 8 1013.5 1013.5 0.2
 
Date/Time
EST
Temp
°C
App
Temp
°C
Dew
Point
°C
Rel
Hum
%
Delta-T
°C
Wind Press
QNH
hPa
Press
MSL
hPa
Rain since
9am
mm
Dir  Spd
km/h
Gust
km/h
Spd
kts
Gust
kts
25/11:30pm 6.3 3.2 5.4 94 0.4 N 11 13 6 7 1013.7 1013.7 0.2
25/11:00pm 6.6 3.9 5.7 94 0.4 N 9 13 5 7 1013.8 1013.8 0.2
25/10:30pm 7.0 4.0 6.1 94 0.4 N 11 13 6 7 1014.1 1014.1 0.2
25/10:00pm 8.1 5.7 7.2 94 0.4 N 9 13 5 7 1014.1 1014.1 0.2
25/09:30pm 7.7 5.6 6.8 94 0.4 N 7 11 4 6 1014.2 1014.2 0.2
25/09:00pm 7.1 6.2 6.2 94 0.4 CALM 0 6 0 3 1014.2 1014.2 0.2
25/08:30pm 6.5 5.1 5.5 93 0.4 NNW 2 7 1 4 1014.2 1014.2 0.2
25/08:00pm 7.3 6.4 5.9 91 0.6 CALM 0 0 0 0 1013.8 1013.8 0.2
25/07:30pm 8.4 7.5 6.2 86 1.0 CALM 0 0 0 0 1013.5 1013.5 0.2
25/07:00pm 8.9 7.6 6.0 82 1.3 WSW 2 6 1 3 1013.2 1013.2 0.2
25/06:30pm 10.2 8.0 6.4 77 1.8 W 7 7 4 4 1013.2 1013.2 0.2
25/06:00pm 10.5 7.6 6.5 76 1.9 SW 11 13 6 7 1012.7 1012.8 0.2
25/05:30pm 10.9 7.4 5.4 69 2.5 SW 13 17 7 9 1012.5 1012.6 0.2
25/05:00pm 11.3 7.5 5.8 69 2.6 SSW 15 20 8 11 1012.2 1012.3 0.2
25/04:30pm 11.5 6.7 5.4 66 2.8 SW 20 30 11 16 1012.0 1012.1 0.2
25/04:00pm 12.2 6.3 3.7 56 3.8 SW 24 30 13 16 1011.8 1011.9 0.2
25/03:30pm 12.3 7.4 5.2 62 3.3 SW 20 28 11 15 1012.0 1012.1 0.2
25/03:00pm 13.4 7.8 5.6 59 3.7 WSW 24 30 13 16 1012.0 1012.1 0.2
25/02:30pm 12.8 8.2 6.4 65 3.1 WSW 20 33 11 18 1012.0 1012.1 0.2
25/02:00pm 12.4 6.8 5.6 63 3.2 SW 24 33 13 18 1012.0 1012.1 0.2
25/01:30pm 13.9 8.8 7.7 66 3.1 WSW 24 35 13 19 1012.1 1012.2 0.2
25/01:00pm 12.9 6.2 5.6 61 3.4 WSW 30 35 16 19 1012.4 1012.5 0.2
25/12:30pm 12.2 5.9 5.8 65 3.0 WSW 28 41 15 22 1012.4 1012.5 0.2
25/12:00pm 11.6 5.2 5.0 64 3.0 W 28 35 15 19 1012.6 1012.7 0.2
25/11:30am 12.3 6.9 6.4 67 2.8 WSW 24 41 13 22 1012.5 1012.6 0.2
25/11:00am 12.1 7.3 7.2 72 2.4 W 22 32 12 17 1012.4 1012.5 0.2
25/10:30am 10.7 6.9 9.0 89 0.8 WNW 19 24 10 13 1012.5 1012.6 0.2
25/10:19am 9.1 3.1 6.9 86 1.0 WNW 28 46 15 25 1012.6 1012.7 0.2
25/10:00am 12.0 6.3 6.9 71 2.4 W 26 37 14 20 1012.3 1012.4 0.0
25/09:30am 11.1 6.5 6.6 74 2.1 WNW 20 32 11 17 1012.3 1012.4 0.0
25/09:00am 10.5 6.1 7.6 82 1.4 WNW 20 28 11 15 1012.1 1012.2 6.4
25/08:30am 9.8 5.5 7.2 84 1.2 WNW 19 26 10 14 1011.6 1011.7 6.4
25/08:00am 8.2 3.7 6.0 86 1.0 NW 19 28 10 15 1011.3 1011.4 6.2
25/07:30am 7.5 3.4 6.0 90 0.7 NW 17 22 9 12 1010.8 1010.9 6.2
25/07:00am 6.4 1.6 5.5 94 0.4 NW 20 24 11 13 1010.5 1010.6 6.2
25/06:30am 5.2 0.7 4.3 94 0.4 NW 17 20 9 11 1010.2 1010.3 6.2
25/06:00am 6.0 1.6 4.8 92 0.5 NW 17 24 9 13 1009.9 1010.0 6.2
25/05:30am 5.6 1.5 4.6 93 0.4 WNW 15 20 8 11 1009.6 1009.7 6.2
25/05:00am 4.9 0.4 4.0 94 0.4 NW 17 20 9 11 1009.2 1009.3 6.2

Other Formats:

Comma delimited format used in spreadsheet applications
http://www.bom.gov.au/fwo/IDV60801/IDV60801.94837.axf

JavaScript Object Notation format (JSON) in row-major order
http://www.bom.gov.au/fwo/IDV60801/IDV60801.94837.json